Time;durP1;ratioP1;P1;durP2;ratioP2;P2;SDS_P1;SDS_P2;PMS_P1;PMS_P2;Temp;Humidity;BMP_temperature;BMP_pressure;BME280_temperature;BME280_humidity;BME280_pressure;Samples;Min_cycle;Max_cycle;Signal;HPM_P1;HPM_P2
2023/12/24 00:00:01;;;;;;;4.45;2.95;;;2.40;1.00;;;;;;5109941;27;20292;-73
2023/12/24 00:02:30;;;;;;;3.22;2.83;;;2.40;1.00;;;;;;5107420;27;20239;-75
2023/12/24 00:04:56;;;;;;;4.05;2.80;;;2.30;1.00;;;;;;5110103;27;20304;-73
2023/12/24 00:07:23;;;;;;;4.82;3.50;;;2.30;1.00;;;;;;5107912;27;21144;-74
2023/12/24 00:09:50;;;;;;;4.47;4.05;;;2.20;1.00;;;;;;5105766;27;20347;-74
2023/12/24 00:12:17;;;;;;;4.68;4.28;;;2.20;1.00;;;;;;5109763;27;20612;-74
2023/12/24 00:14:47;;;;;;;5.50;4.70;;;2.20;1.00;;;;;;5106624;27;21017;-73
2023/12/24 00:17:14;;;;;;;5.20;4.70;;;2.20;1.00;;;;;;5115513;27;20231;-73
2023/12/24 00:19:42;;;;;;;5.88;5.38;;;2.10;1.00;;;;;;5108980;27;20326;-73
2023/12/24 00:22:10;;;;;;;5.80;5.20;;;2.10;1.00;;;;;;5115829;27;20269;-74
2023/12/24 00:24:37;;;;;;;5.15;4.65;;;2.00;1.00;;;;;;5106956;27;20255;-74
2023/12/24 00:27:05;;;;;;;6.45;5.85;;;2.00;1.00;;;;;;5111822;27;20791;-74
2023/12/24 00:29:31;;;;;;;5.40;4.90;;;2.00;1.00;;;;;;5112903;27;20238;-74
2023/12/24 00:31:58;;;;;;;6.60;6.00;;;1.90;1.00;;;;;;5111097;27;20227;-75
2023/12/24 00:34:25;;;;;;;5.70;5.20;;;1.90;1.00;;;;;;5109708;27;20272;-76
2023/12/24 00:36:54;;;;;;;5.50;5.00;;;2.00;1.00;;;;;;5107955;27;20239;-73
2023/12/24 00:39:20;;;;;;;5.63;5.05;;;2.00;1.00;;;;;;5108670;27;20243;-74
2023/12/24 00:41:47;;;;;;;5.25;4.75;;;2.00;1.00;;;;;;5109324;27;20330;-76
2023/12/24 00:44:14;;;;;;;4.97;4.55;;;2.00;1.00;;;;;;5106543;27;20630;-74
2023/12/24 00:46:41;;;;;;;5.70;4.18;;;2.00;1.00;;;;;;5110076;27;20371;-74
2023/12/24 00:49:08;;;;;;;4.85;4.35;;;1.90;1.00;;;;;;5112485;27;21046;-75
2023/12/24 00:51:35;;;;;;;4.95;4.38;;;2.00;1.00;;;;;;5108145;27;20269;-74
2023/12/24 00:54:03;;;;;;;5.82;4.82;;;2.00;1.00;;;;;;5109990;27;20326;-73
2023/12/24 00:56:30;;;;;;;4.95;4.45;;;2.00;1.00;;;;;;5111688;27;20923;-73
2023/12/24 00:58:57;;;;;;;4.97;4.57;;;2.00;1.00;;;;;;5110049;27;20243;-73
2023/12/24 01:01:24;;;;;;;6.68;4.97;;;1.90;1.00;;;;;;5109821;27;20235;-73
2023/12/24 01:03:51;;;;;;;4.80;4.35;;;1.90;1.00;;;;;;5108120;27;20231;-75
2023/12/24 01:06:18;;;;;;;7.50;4.88;;;2.00;1.00;;;;;;5112462;27;20727;-74
2023/12/24 01:08:45;;;;;;;4.68;3.95;;;2.00;1.00;;;;;;5106761;27;20242;-75
2023/12/24 01:11:13;;;;;;;3.78;3.38;;;2.10;1.00;;;;;;5111478;27;20308;-74
2023/12/24 01:13:40;;;;;;;5.50;4.45;;;2.10;1.00;;;;;;5109249;27;20321;-75
2023/12/24 01:16:09;;;;;;;4.28;3.88;;;2.10;1.00;;;;;;5109960;27;20326;-75
2023/12/24 01:18:37;;;;;;;4.72;4.20;;;2.10;1.00;;;;;;5108804;27;20256;-75
2023/12/24 01:21:04;;;;;;;4.85;4.30;;;2.00;1.00;;;;;;5108480;27;20334;-76
2023/12/24 01:23:31;;;;;;;5.28;4.47;;;2.00;1.00;;;;;;5107469;27;20259;-75
2023/12/24 01:25:58;;;;;;;5.30;4.00;;;2.00;1.00;;;;;;5106484;27;20231;-77
2023/12/24 01:28:27;;;;;;;5.05;4.55;;;1.90;1.00;;;;;;5112195;27;20683;-75
2023/12/24 01:30:53;;;;;;;4.80;4.32;;;1.90;1.00;;;;;;5108181;27;20284;-76
2023/12/24 01:33:21;;;;;;;4.97;3.85;;;1.90;1.00;;;;;;5113021;27;20240;-74
2023/12/24 01:35:48;;;;;;;4.03;3.50;;;1.90;1.00;;;;;;5111628;27;20235;-75
2023/12/24 01:38:15;;;;;;;4.82;4.38;;;1.90;1.00;;;;;;5115153;27;20289;-74
2023/12/24 01:40:46;;;;;;;5.70;4.15;;;1.90;1.00;;;;;;5107524;27;20326;-75
2023/12/24 01:43:12;;;;;;;4.78;4.00;;;1.80;1.00;;;;;;5108660;27;20347;-74
2023/12/24 01:45:41;;;;;;;5.13;4.63;;;1.80;1.00;;;;;;5109049;27;20290;-75
2023/12/24 01:48:08;;;;;;;4.50;4.10;;;1.80;1.00;;;;;;5104791;27;20227;-75
2023/12/24 01:50:37;;;;;;;5.68;4.85;;;1.80;1.00;;;;;;5111785;27;20239;-73
2023/12/24 01:53:05;;;;;;;4.60;4.20;;;1.70;1.00;;;;;;5109306;27;20235;-75
2023/12/24 01:55:32;;;;;;;5.30;4.15;;;1.70;1.00;;;;;;5109810;27;21146;-73
2023/12/24 01:57:59;;;;;;;4.80;4.20;;;1.60;1.00;;;;;;5108048;27;20377;-74
2023/12/24 02:00:26;;;;;;;4.90;4.40;;;1.70;1.00;;;;;;5113208;27;21090;-74
2023/12/24 02:02:56;;;;;;;4.40;4.00;;;1.80;1.00;;;;;;5112986;27;20682;-74
2023/12/24 02:05:23;;;;;;;3.95;3.55;;;1.70;1.00;;;;;;5105484;27;20243;-75
2023/12/24 02:07:52;;;;;;;4.50;3.42;;;1.70;1.00;;;;;;5109937;27;20239;-73
2023/12/24 02:10:19;;;;;;;3.72;2.92;;;1.70;1.00;;;;;;5108599;27;21047;-74
2023/12/24 02:12:46;;;;;;;3.67;3.28;;;1.70;1.00;;;;;;5107088;27;20764;-74
2023/12/24 02:15:13;;;;;;;3.90;3.50;;;1.70;1.00;;;;;;5110288;27;20234;-73
2023/12/24 02:17:41;;;;;;;4.60;3.25;;;1.70;1.00;;;;;;5107804;27;20919;-75
2023/12/24 02:20:11;;;;;;;4.88;4.00;;;1.70;1.00;;;;;;5111406;27;20326;-75
2023/12/24 02:22:39;;;;;;;4.28;3.60;;;1.60;1.00;;;;;;5114373;27;20239;-75
2023/12/24 02:25:06;;;;;;;4.70;3.22;;;1.60;1.00;;;;;;5113499;27;20292;-76
2023/12/24 02:27:38;;;;;;;4.88;3.60;;;1.60;1.00;;;;;;5110009;27;20727;-75
2023/12/24 02:30:11;;;;;;;4.05;3.65;;;1.60;1.00;;;;;;5108465;27;20259;-74
2023/12/24 02:32:40;;;;;;;5.05;3.97;;;1.70;1.00;;;;;;5111139;27;20239;-77
2023/12/24 02:35:09;;;;;;;3.80;3.20;;;1.70;1.00;;;;;;5111433;27;20242;-77
2023/12/24 02:37:36;;;;;;;3.88;3.53;;;1.80;1.00;;;;;;5107790;27;20255;-75
2023/12/24 02:40:08;;;;;;;3.72;3.40;;;1.80;1.00;;;;;;5110587;27;20240;-77
2023/12/24 02:42:35;;;;;;;3.80;3.25;;;1.80;1.00;;;;;;5109742;27;20248;-75
2023/12/24 02:45:02;;;;;;;3.65;2.88;;;1.80;1.00;;;;;;5110513;27;20346;-76
2023/12/24 02:47:29;;;;;;;3.30;3.00;;;1.90;1.00;;;;;;5087427;27;20408;-76
2023/12/24 02:49:56;;;;;;;4.50;3.88;;;1.80;1.00;;;;;;5106970;27;20240;-75
2023/12/24 02:52:23;;;;;;;5.25;3.35;;;1.80;1.00;;;;;;5108965;27;20240;-76
2023/12/24 02:54:50;;;;;;;3.80;3.42;;;1.80;1.00;;;;;;5106494;27;20794;-74
2023/12/24 02:57:18;;;;;;;4.63;3.35;;;1.70;1.00;;;;;;5108724;27;20239;-75
2023/12/24 02:59:45;;;;;;;4.50;3.30;;;1.70;1.00;;;;;;5106574;27;20286;-76
2023/12/24 03:02:12;;;;;;;3.50;2.80;;;1.70;1.00;;;;;;5108237;27;20239;-72
2023/12/24 03:04:39;;;;;;;3.28;2.80;;;1.70;1.00;;;;;;5105960;27;20710;-75
2023/12/24 03:07:06;;;;;;;4.05;2.83;;;1.60;1.00;;;;;;5107979;27;20812;-76
2023/12/24 03:09:33;;;;;;;3.50;2.58;;;1.60;1.00;;;;;;5105853;27;20266;-75
2023/12/24 03:12:00;;;;;;;3.45;2.80;;;1.60;1.00;;;;;;5107605;27;20330;-76
2023/12/24 03:14:28;;;;;;;3.58;2.60;;;1.70;1.00;;;;;;5107456;27;20235;-75
2023/12/24 03:16:56;;;;;;;3.65;2.85;;;1.80;1.00;;;;;;5104730;27;20323;-76
2023/12/24 03:19:22;;;;;;;2.55;2.33;;;1.70;1.00;;;;;;5107953;27;20385;-76
2023/12/24 03:21:51;;;;;;;3.90;2.90;;;1.70;1.00;;;;;;5105771;27;20239;-72
2023/12/24 03:24:18;;;;;;;3.50;2.75;;;1.70;1.00;;;;;;5104133;27;20275;-76
2023/12/24 03:26:44;;;;;;;4.75;2.92;;;1.70;1.00;;;;;;5110368;27;20284;-75
2023/12/24 03:29:13;;;;;;;4.63;3.28;;;1.70;1.00;;;;;;5107621;27;20353;-75
2023/12/24 03:31:41;;;;;;;3.90;3.47;;;1.80;1.00;;;;;;5109717;27;20326;-75
2023/12/24 03:34:08;;;;;;;4.38;3.50;;;1.80;1.00;;;;;;5107056;27;20246;-75
2023/12/24 03:36:35;;;;;;;3.70;3.22;;;1.80;1.00;;;;;;5108258;27;20256;-75
2023/12/24 03:39:02;;;;;;;5.47;4.32;;;1.80;1.00;;;;;;5106362;27;20285;-74
2023/12/24 03:41:29;;;;;;;5.97;4.00;;;1.90;1.00;;;;;;5107351;27;20239;-75
2023/12/24 03:43:56;;;;;;;6.07;3.97;;;1.80;1.00;;;;;;5110440;27;20312;-69
2023/12/24 03:46:23;;;;;;;5.93;3.90;;;1.80;1.00;;;;;;5111585;27;20288;-69
2023/12/24 03:48:52;;;;;;;5.40;3.35;;;1.70;1.00;;;;;;5092214;27;20325;-69
2023/12/24 03:51:20;;;;;;;5.68;3.42;;;1.80;1.00;;;;;;5111578;27;20241;-70
2023/12/24 03:53:47;;;;;;;4.85;3.60;;;1.70;1.00;;;;;;5112453;27;20232;-73
2023/12/24 03:56:14;;;;;;;4.90;3.58;;;1.80;1.00;;;;;;5107163;27;20939;-69
2023/12/24 03:58:41;;;;;;;4.22;3.20;;;1.80;1.00;;;;;;5110798;27;20254;-68
2023/12/24 04:01:08;;;;;;;3.08;2.80;;;2.00;1.00;;;;;;5114759;27;20357;-69
2023/12/24 04:03:35;;;;;;;2.67;2.20;;;1.90;1.00;;;;;;5111135;27;20250;-70
2023/12/24 04:06:13;;;;;;;3.10;2.80;;;1.90;1.00;;;;;;5112985;27;20314;-73
2023/12/24 04:08:40;;;;;;;2.35;2.15;;;2.00;1.00;;;;;;5112891;27;20246;-70
2023/12/24 04:11:12;;;;;;;2.55;2.35;;;2.00;1.00;;;;;;5111670;27;21004;-68
2023/12/24 04:13:39;;;;;;;2.80;2.13;;;1.90;1.00;;;;;;5109516;27;20245;-68
2023/12/24 04:16:06;;;;;;;2.50;2.30;;;1.80;1.00;;;;;;5111994;27;20418;-71
2023/12/24 04:18:33;;;;;;;2.47;1.85;;;1.80;1.00;;;;;;5111945;27;20301;-73
2023/12/24 04:21:00;;;;;;;2.53;2.00;;;1.80;1.00;;;;;;5113250;27;20469;-70
2023/12/24 04:23:29;;;;;;;2.40;2.20;;;1.80;1.00;;;;;;5112977;27;20243;-70
2023/12/24 04:25:56;;;;;;;2.47;2.28;;;1.80;1.00;;;;;;5106705;27;20338;-69
2023/12/24 04:28:23;;;;;;;2.83;2.53;;;1.70;1.00;;;;;;5107356;27;20228;-69
2023/12/24 04:30:49;;;;;;;2.83;2.50;;;1.70;1.00;;;;;;5110905;27;21040;-73
2023/12/24 04:33:16;;;;;;;3.97;3.20;;;1.80;1.00;;;;;;5110369;27;21685;-70
2023/12/24 04:35:44;;;;;;;3.05;2.75;;;1.90;1.00;;;;;;5110439;27;20235;-70
2023/12/24 04:38:11;;;;;;;3.45;2.85;;;2.00;1.00;;;;;;5112540;27;20243;-70
2023/12/24 04:40:40;;;;;;;3.53;3.17;;;2.00;1.00;;;;;;5107503;27;20754;-70
2023/12/24 04:43:07;;;;;;;3.15;2.80;;;1.90;1.00;;;;;;5107342;27;20322;-70
2023/12/24 04:45:33;;;;;;;3.55;2.70;;;1.90;1.00;;;;;;5107544;27;20231;-72
2023/12/24 04:48:03;;;;;;;2.17;1.95;;;2.00;1.00;;;;;;5111032;27;21121;-69
2023/12/24 04:50:30;;;;;;;2.08;1.90;;;2.00;1.00;;;;;;5103183;27;20251;-70
2023/12/24 04:52:57;;;;;;;2.40;1.95;;;1.90;1.00;;;;;;5111121;27;20242;-72
2023/12/24 04:55:24;;;;;;;2.97;2.20;;;1.90;1.00;;;;;;5111479;27;21034;-69
2023/12/24 04:57:52;;;;;;;2.28;2.08;;;2.10;1.00;;;;;;5107965;27;20243;-69
2023/12/24 05:00:20;;;;;;;2.42;2.13;;;2.20;1.00;;;;;;5112867;27;20326;-69
2023/12/24 05:02:47;;;;;;;2.80;1.85;;;2.20;1.00;;;;;;5106313;27;20316;-69
2023/12/24 05:05:15;;;;;;;1.65;1.52;;;2.10;1.00;;;;;;5106529;27;20240;-70
2023/12/24 05:07:42;;;;;;;1.80;1.70;;;2.20;1.00;;;;;;5108400;27;20318;-75
2023/12/24 05:10:10;;;;;;;1.50;1.40;;;2.30;1.00;;;;;;5109648;27;20966;-70
2023/12/24 05:12:46;;;;;;;1.70;1.58;;;2.20;1.00;;;;;;5108397;27;21116;-68
2023/12/24 05:15:15;;;;;;;1.60;1.50;;;2.30;1.00;;;;;;5111348;27;20230;-70
2023/12/24 05:17:42;;;;;;;1.65;1.40;;;2.20;1.00;;;;;;5106817;27;20244;-69
2023/12/24 05:20:10;;;;;;;1.80;1.20;;;2.30;1.00;;;;;;5111267;27;20227;-73
2023/12/24 05:22:37;;;;;;;1.40;1.20;;;2.20;1.00;;;;;;5112427;27;20250;-70
2023/12/24 05:25:04;;;;;;;2.08;1.42;;;2.20;1.00;;;;;;5108394;27;20234;-73
2023/12/24 05:27:31;;;;;;;1.42;1.33;;;2.30;1.00;;;;;;5111056;27;20239;-71
2023/12/24 05:29:58;;;;;;;1.50;1.40;;;2.30;1.00;;;;;;5110309;27;20250;-69
2023/12/24 05:32:26;;;;;;;1.83;1.45;;;2.30;1.00;;;;;;5109663;27;20264;-70
2023/12/24 05:34:53;;;;;;;1.75;1.65;;;2.40;1.00;;;;;;5108395;27;20822;-70
2023/12/24 05:37:20;;;;;;;2.75;1.88;;;2.50;1.00;;;;;;5110154;27;20278;-71
2023/12/24 05:39:47;;;;;;;2.67;2.45;;;2.40;1.00;;;;;;5103673;27;20373;-70
2023/12/24 05:42:14;;;;;;;1.77;1.67;;;2.40;1.00;;;;;;5114464;27;20271;-70
2023/12/24 05:44:42;;;;;;;2.70;1.70;;;2.50;1.00;;;;;;5109618;27;20235;-70
2023/12/24 05:47:09;;;;;;;1.98;1.83;;;2.50;1.00;;;;;;5108786;27;20289;-70
2023/12/24 05:49:40;;;;;;;2.25;1.98;;;2.50;1.00;;;;;;5110079;27;20322;-69
2023/12/24 05:52:07;;;;;;;3.70;2.72;;;2.70;1.00;;;;;;5112077;27;20235;-70
2023/12/24 05:54:33;;;;;;;3.38;2.85;;;2.60;1.00;;;;;;5110590;27;21035;-73
2023/12/24 05:57:01;;;;;;;3.17;2.30;;;2.50;1.00;;;;;;5110531;27;20239;-70
2023/12/24 05:59:28;;;;;;;3.15;2.83;;;2.50;1.00;;;;;;5109539;27;20255;-69
2023/12/24 06:01:54;;;;;;;3.30;2.80;;;2.60;1.00;;;;;;5111803;27;21084;-74
2023/12/24 06:04:21;;;;;;;3.13;2.83;;;2.60;1.00;;;;;;5109480;27;20235;-74
2023/12/24 06:06:50;;;;;;;3.17;2.88;;;2.70;1.00;;;;;;5106504;27;20259;-74
2023/12/24 06:09:16;;;;;;;3.33;3.03;;;2.70;1.00;;;;;;5113036;27;20442;-74
2023/12/24 06:11:43;;;;;;;3.28;2.97;;;2.70;1.00;;;;;;5111501;27;20282;-75
2023/12/24 06:14:10;;;;;;;3.03;2.72;;;2.70;1.00;;;;;;5111354;27;20346;-75
2023/12/24 06:16:37;;;;;;;4.00;3.40;;;2.80;1.00;;;;;;5110146;27;20235;-73
2023/12/24 06:19:05;;;;;;;3.97;3.45;;;2.90;1.00;;;;;;5107686;27;20313;-74
2023/12/24 06:21:32;;;;;;;3.13;2.80;;;2.90;1.00;;;;;;5110413;27;20669;-73
2023/12/24 06:24:01;;;;;;;3.80;3.38;;;3.00;1.00;;;;;;5107880;27;20972;-73
2023/12/24 06:26:28;;;;;;;3.40;2.90;;;3.00;1.00;;;;;;5111390;27;21129;-73
2023/12/24 06:28:55;;;;;;;3.67;3.20;;;3.00;1.00;;;;;;5113423;27;20270;-74
2023/12/24 06:31:22;;;;;;;3.22;2.92;;;3.00;1.00;;;;;;5108051;27;20235;-73
2023/12/24 06:33:49;;;;;;;3.72;3.33;;;3.10;1.00;;;;;;5110983;27;20737;-73
2023/12/24 06:36:17;;;;;;;3.20;2.90;;;3.20;1.00;;;;;;5113364;27;20264;-73
2023/12/24 06:38:44;;;;;;;3.90;3.50;;;3.20;1.00;;;;;;5111040;27;20241;-73
2023/12/24 06:41:12;;;;;;;4.07;3.67;;;3.30;1.00;;;;;;5097283;27;20238;-74
2023/12/24 06:43:39;;;;;;;3.65;3.00;;;3.40;1.00;;;;;;5111384;27;20243;-73
2023/12/24 06:46:11;;;;;;;4.10;3.60;;;3.50;1.00;;;;;;5109320;27;20259;-74
2023/12/24 06:48:38;;;;;;;5.03;4.05;;;3.60;1.00;;;;;;5109310;27;20243;-76
2023/12/24 06:51:06;;;;;;;4.57;3.70;;;3.80;1.00;;;;;;5110138;27;20330;-75
2023/12/24 06:53:33;;;;;;;5.18;4.20;;;3.80;1.00;;;;;;5107388;27;21104;-75
2023/12/24 06:56:00;;;;;;;4.35;3.95;;;3.90;1.00;;;;;;5107461;27;20703;-77
2023/12/24 06:58:28;;;;;;;5.50;4.38;;;4.00;1.00;;;;;;5108803;27;20316;-74
2023/12/24 07:00:55;;;;;;;5.85;4.95;;;4.10;1.00;;;;;;5107006;27;20333;-74
2023/12/24 07:03:22;;;;;;;5.95;4.50;;;4.10;1.00;;;;;;5108320;27;20228;-72
2023/12/24 07:05:49;;;;;;;5.90;5.25;;;4.20;1.00;;;;;;5108378;27;20243;-75
2023/12/24 07:08:16;;;;;;;5.50;4.90;;;4.30;1.00;;;;;;5108802;27;20290;-72
2023/12/24 07:10:43;;;;;;;5.38;4.88;;;4.40;1.00;;;;;;5110213;27;20287;-75
2023/12/24 07:13:10;;;;;;;6.15;5.55;;;4.50;1.00;;;;;;5108626;27;20314;-73
2023/12/24 07:15:42;;;;;;;5.85;5.28;;;4.60;1.00;;;;;;5108438;27;20318;-75
2023/12/24 07:18:09;;;;;;;5.57;5.07;;;4.70;1.00;;;;;;5112042;27;20241;-72
2023/12/24 07:20:36;;;;;;;6.63;5.72;;;4.80;1.00;;;;;;5105819;27;20236;-74
2023/12/24 07:23:04;;;;;;;5.07;4.07;;;4.90;1.00;;;;;;5108379;27;20244;-75
2023/12/24 07:25:30;;;;;;;4.30;3.97;;;5.10;1.00;;;;;;5105549;27;20283;-76
2023/12/24 07:27:57;;;;;;;3.30;2.85;;;5.30;1.00;;;;;;5106696;27;20228;-74
2023/12/24 07:30:25;;;;;;;3.08;2.70;;;5.60;1.00;;;;;;5106664;27;20736;-74
2023/12/24 07:32:54;;;;;;;2.77;2.47;;;6.00;1.00;;;;;;5104381;27;20338;-73
2023/12/24 07:35:21;;;;;;;3.10;2.63;;;6.50;1.00;;;;;;5106793;27;20481;-74
2023/12/24 07:37:48;;;;;;;3.30;3.00;;;6.80;1.00;;;;;;5106120;27;20528;-75
2023/12/24 07:40:15;;;;;;;2.60;2.10;;;7.10;1.00;;;;;;5107651;27;20426;-73
2023/12/24 07:42:42;;;;;;;2.73;2.53;;;7.30;1.00;;;;;;5107734;27;20270;-74
2023/12/24 07:45:10;;;;;;;2.63;2.43;;;7.40;1.00;;;;;;5109562;27;20568;-74
2023/12/24 07:47:37;;;;;;;3.40;3.10;;;7.50;1.00;;;;;;5104922;27;20584;-74
2023/12/24 07:50:07;;;;;;;3.30;3.00;;;7.60;1.00;;;;;;5109142;27;20533;-74
2023/12/24 07:52:34;;;;;;;4.33;3.20;;;7.70;1.00;;;;;;5114345;27;20551;-74
2023/12/24 07:55:01;;;;;;;3.30;3.10;;;7.80;1.00;;;;;;5108086;27;20977;-74
2023/12/24 07:57:28;;;;;;;2.73;2.53;;;7.80;1.00;;;;;;5108693;27;20896;-74
2023/12/24 07:59:55;;;;;;;3.67;3.30;;;7.90;1.00;;;;;;5107724;27;20688;-74
2023/12/24 08:02:21;;;;;;;3.57;3.20;;;7.90;1.00;;;;;;5104907;27;20446;-75
2023/12/24 08:04:49;;;;;;;4.87;3.93;;;8.00;1.00;;;;;;5108556;27;20609;-75
2023/12/24 08:07:17;;;;;;;4.00;3.60;;;8.00;1.00;;;;;;5105137;27;20548;-74
2023/12/24 08:09:44;;;;;;;5.90;3.77;;;8.10;1.00;;;;;;5108401;27;20462;-75
2023/12/24 08:12:11;;;;;;;5.07;3.87;;;8.10;1.00;;;;;;5108484;27;20484;-74
2023/12/24 08:14:38;;;;;;;4.80;4.30;;;8.10;1.00;;;;;;5106302;27;20569;-74
2023/12/24 08:17:05;;;;;;;4.80;4.10;;;8.20;1.00;;;;;;5113293;27;20477;-74
2023/12/24 08:19:33;;;;;;;4.70;4.30;;;8.20;1.00;;;;;;5107165;27;20461;-75
2023/12/24 08:22:00;;;;;;;4.20;3.77;;;8.20;1.00;;;;;;5106820;27;20254;-74
2023/12/24 08:24:28;;;;;;;5.00;4.53;;;8.30;1.00;;;;;;5107355;27;21050;-70
2023/12/24 08:26:55;;;;;;;4.97;4.43;;;8.30;1.00;;;;;;5109140;27;20434;-72
2023/12/24 08:29:22;;;;;;;4.83;4.43;;;8.40;1.00;;;;;;5109853;27;20543;-72
2023/12/24 08:31:49;;;;;;;5.33;4.47;;;8.40;1.00;;;;;;5107809;27;20495;-72
2023/12/24 08:34:16;;;;;;;5.10;4.23;;;8.40;1.00;;;;;;5109675;27;20528;-71
2023/12/24 08:36:43;;;;;;;5.03;4.53;;;8.40;1.00;;;;;;5099096;27;20557;-72
2023/12/24 08:39:10;;;;;;;4.87;4.47;;;8.50;1.00;;;;;;5109144;27;20489;-72
2023/12/24 08:41:39;;;;;;;7.67;4.47;;;8.40;1.00;;;;;;5109071;27;20461;-72
2023/12/24 08:44:06;;;;;;;5.63;4.90;;;8.40;1.00;;;;;;5112061;27;20493;-73
2023/12/24 08:46:33;;;;;;;5.60;4.90;;;8.50;1.00;;;;;;5108660;27;20575;-71
2023/12/24 08:49:00;;;;;;;5.73;5.13;;;8.50;1.00;;;;;;5108508;27;20506;-72
2023/12/24 08:51:27;;;;;;;6.07;5.37;;;8.50;1.00;;;;;;5110617;27;21594;-73
2023/12/24 08:53:54;;;;;;;6.30;4.97;;;8.50;1.00;;;;;;5107424;27;20457;-74
2023/12/24 08:56:21;;;;;;;5.70;5.10;;;8.60;1.00;;;;;;5110805;27;20579;-72
2023/12/24 08:58:49;;;;;;;6.00;5.40;;;8.60;1.00;;;;;;5110346;27;20562;-72
2023/12/24 09:01:16;;;;;;;8.30;5.17;;;8.60;1.00;;;;;;5110325;27;20549;-72
2023/12/24 09:03:44;;;;;;;6.50;5.80;;;8.60;1.00;;;;;;5108661;27;20474;-72
2023/12/24 09:06:11;;;;;;;7.17;4.50;;;8.70;1.00;;;;;;5114550;27;20471;-74
2023/12/24 09:08:38;;;;;;;5.50;4.23;;;8.60;1.00;;;;;;5108923;27;20489;-72
2023/12/24 09:11:05;;;;;;;5.10;4.60;;;8.70;1.00;;;;;;5110377;27;21046;-72
2023/12/24 09:13:32;;;;;;;4.90;4.40;;;8.70;1.00;;;;;;5109927;27;20504;-75
2023/12/24 09:16:00;;;;;;;4.80;3.93;;;8.70;1.00;;;;;;5111741;27;20561;-71
2023/12/24 09:18:27;;;;;;;4.80;4.30;;;8.70;1.00;;;;;;5110040;27;20458;-74
2023/12/24 09:20:54;;;;;;;5.30;4.43;;;8.70;1.00;;;;;;5112798;27;20486;-73
2023/12/24 09:23:21;;;;;;;4.47;4.07;;;8.80;1.00;;;;;;5110294;27;20474;-71
2023/12/24 09:25:48;;;;;;;6.93;4.80;;;8.80;1.00;;;;;;5108764;27;21043;-73
2023/12/24 09:28:15;;;;;;;4.83;4.13;;;8.80;1.00;;;;;;5109493;27;20451;-71
2023/12/24 09:30:42;;;;;;;4.23;3.57;;;8.80;1.00;;;;;;5109252;27;20458;-74
2023/12/24 09:33:12;;;;;;;3.90;3.60;;;8.80;1.00;;;;;;5107757;27;20473;-74
2023/12/24 09:35:40;;;;;;;3.50;3.20;;;8.90;1.00;;;;;;5108876;27;20450;-73
2023/12/24 09:38:07;;;;;;;4.47;4.07;;;8.90;1.00;;;;;;5112418;27;20543;-71
2023/12/24 09:40:34;;;;;;;3.70;3.40;;;8.90;1.00;;;;;;5112015;27;20458;-71
2023/12/24 09:43:01;;;;;;;4.13;3.60;;;8.90;1.00;;;;;;5111445;27;21434;-72
2023/12/24 09:45:32;;;;;;;3.50;2.93;;;8.90;1.00;;;;;;5110706;27;20462;-71
2023/12/24 09:47:59;;;;;;;3.43;3.13;;;8.90;1.00;;;;;;5111615;27;20485;-71
2023/12/24 09:50:27;;;;;;;2.80;2.60;;;8.90;1.00;;;;;;5112746;27;20514;-71
2023/12/24 09:52:54;;;;;;;2.80;2.60;;;9.00;1.00;;;;;;5107755;27;20542;-70
2023/12/24 09:55:21;;;;;;;3.43;2.77;;;9.00;1.00;;;;;;5111514;27;20500;-74
2023/12/24 09:57:48;;;;;;;3.40;2.63;;;9.00;1.00;;;;;;5110060;27;20457;-73
2023/12/24 10:00:16;;;;;;;3.10;2.33;;;9.00;1.00;;;;;;5106546;27;20450;-72
2023/12/24 10:02:45;;;;;;;2.20;2.00;;;9.10;1.00;;;;;;5109525;27;21163;-73
2023/12/24 10:05:14;;;;;;;4.77;2.13;;;9.10;1.00;;;;;;5108985;27;20541;-71
2023/12/24 10:07:45;;;;;;;1.83;1.70;;;9.10;1.00;;;;;;5111808;27;20457;-73
2023/12/24 10:10:13;;;;;;;2.93;1.80;;;9.10;1.00;;;;;;5111111;27;20507;-73
2023/12/24 10:12:42;;;;;;;2.30;2.10;;;9.10;1.00;;;;;;5105330;27;21244;-72
2023/12/24 10:15:09;;;;;;;2.60;1.53;;;9.10;1.00;;;;;;5110681;27;20446;-72
2023/12/24 10:17:37;;;;;;;2.43;2.23;;;9.20;1.00;;;;;;5110503;27;20454;-74
2023/12/24 10:20:05;;;;;;;1.77;1.60;;;9.20;1.00;;;;;;5111399;27;20788;-71
2023/12/24 10:22:33;;;;;;;1.60;1.50;;;9.30;1.00;;;;;;5111680;27;20462;-73
2023/12/24 10:25:03;;;;;;;1.70;1.60;;;9.30;1.00;;;;;;5110768;27;20428;-76
2023/12/24 10:27:30;;;;;;;1.50;1.40;;;9.30;1.00;;;;;;5111204;27;20953;-74
2023/12/24 10:30:10;;;;;;;2.90;1.73;;;9.30;1.00;;;;;;5110644;27;20502;-74
2023/12/24 10:32:37;;;;;;;2.80;1.83;;;9.30;1.00;;;;;;5107042;27;20974;-75
2023/12/24 10:35:04;;;;;;;1.60;1.50;;;9.40;1.00;;;;;;5112296;27;20543;-75
2023/12/24 10:37:31;;;;;;;1.77;1.67;;;9.40;1.00;;;;;;5108219;27;20576;-76
2023/12/24 10:40:08;;;;;;;2.30;2.00;;;9.30;1.00;;;;;;5106546;27;20484;-75
2023/12/24 10:42:36;;;;;;;1.97;1.77;;;9.30;1.00;;;;;;5107463;27;20472;-75
2023/12/24 10:45:04;;;;;;;1.40;1.30;;;9.40;1.00;;;;;;5109307;27;20952;-75
2023/12/24 10:47:31;;;;;;;1.77;1.50;;;9.40;1.00;;;;;;5108715;27;20569;-74
2023/12/24 10:49:58;;;;;;;2.00;1.60;;;9.50;1.00;;;;;;5107200;27;20445;-75
2023/12/24 10:52:25;;;;;;;2.37;1.83;;;9.50;1.00;;;;;;5110622;27;20571;-74
2023/12/24 10:54:53;;;;;;;1.43;1.33;;;9.40;1.00;;;;;;5105886;27;20458;-77
2023/12/24 10:57:38;;;;;;;1.40;1.30;;;9.40;1.00;;;;;;5106763;27;20457;-75
2023/12/24 11:00:09;;;;;;;1.33;1.23;;;9.40;1.00;;;;;;5107484;27;20907;-75
2023/12/24 11:02:37;;;;;;;1.17;1.00;;;9.40;1.00;;;;;;5109184;27;20450;-74
2023/12/24 11:05:05;;;;;;;1.10;0.93;;;9.40;1.00;;;;;;5107937;27;20462;-75
2023/12/24 11:07:47;;;;;;;1.00;0.80;;;9.40;1.00;;;;;;5108773;27;20557;-74
2023/12/24 11:10:43;;;;;;;1.10;0.80;;;9.50;1.00;;;;;;5106459;27;20500;-74
2023/12/24 11:13:48;;;;;;;1.27;0.93;;;9.50;1.00;;;;;;5108989;27;20469;-74
2023/12/24 11:16:40;;;;;;;0.90;0.70;;;9.50;1.00;;;;;;5105825;27;20426;-75
2023/12/24 11:19:07;;;;;;;1.43;0.97;;;9.50;1.00;;;;;;5106867;27;20454;-73
2023/12/24 11:22:11;;;;;;;1.23;0.90;;;9.60;1.00;;;;;;5105635;27;20523;-75
2023/12/24 11:24:45;;;;;;;1.77;1.60;;;9.60;1.00;;;;;;5106113;27;20480;-74
2023/12/24 11:27:12;;;;;;;1.27;1.10;;;9.50;1.00;;;;;;5107197;27;20457;-75
2023/12/24 11:29:47;;;;;;;1.27;1.13;;;9.60;1.00;;;;;;5107764;27;20494;-74
2023/12/24 11:32:36;;;;;;;1.00;0.90;;;9.60;1.00;;;;;;5106777;27;20485;-74
2023/12/24 11:35:03;;;;;;;1.73;0.90;;;9.70;1.00;;;;;;5107379;27;21221;-77
2023/12/24 11:37:33;;;;;;;1.20;0.90;;;9.70;1.00;;;;;;5106346;27;20465;-74
2023/12/24 11:40:02;;;;;;;1.07;0.90;;;9.60;1.00;;;;;;5107184;27;20541;-75
2023/12/24 11:42:44;;;;;;;1.10;0.80;;;9.60;1.00;;;;;;5102460;27;20466;-74
2023/12/24 11:45:21;;;;;;;0.80;0.70;;;9.70;1.00;;;;;;5107856;27;20492;-76
2023/12/24 11:47:48;;;;;;;1.93;1.17;;;9.70;1.00;;;;;;5105251;27;20452;-74
2023/12/24 11:50:15;;;;;;;2.73;1.20;;;9.70;1.00;;;;;;5105420;27;20485;-74
2023/12/24 11:52:47;;;;;;;1.47;1.20;;;9.70;1.00;;;;;;5108176;27;20544;-74
2023/12/24 11:55:16;;;;;;;2.23;1.40;;;9.70;1.00;;;;;;5107254;27;20445;-75
2023/12/24 11:57:43;;;;;;;1.20;1.10;;;9.70;1.00;;;;;;5105732;27;20956;-75
2023/12/24 12:00:14;;;;;;;1.50;1.40;;;9.70;1.00;;;;;;5107622;27;20574;-74
2023/12/24 12:02:43;;;;;;;1.53;0.90;;;9.70;1.00;;;;;;5105424;27;20535;-75
2023/12/24 12:05:12;;;;;;;1.13;1.03;;;9.60;1.00;;;;;;5105827;27;20464;-76
2023/12/24 12:07:39;;;;;;;1.33;1.20;;;9.70;1.00;;;;;;5108576;27;20466;-74
2023/12/24 12:10:06;;;;;;;1.57;1.30;;;9.70;1.00;;;;;;5109069;27;20449;-75
2023/12/24 12:12:33;;;;;;;1.20;1.10;;;9.70;1.00;;;;;;5108509;27;22136;-74
2023/12/24 12:15:00;;;;;;;3.70;1.57;;;9.70;1.00;;;;;;5106975;27;21239;-75
2023/12/24 12:17:28;;;;;;;1.83;1.40;;;9.70;1.00;;;;;;5112119;27;21256;-75
2023/12/24 12:19:57;;;;;;;1.77;1.07;;;9.70;1.00;;;;;;5109015;27;21101;-75
2023/12/24 12:22:25;;;;;;;1.10;1.00;;;9.70;1.00;;;;;;5110781;27;20456;-74
2023/12/24 12:24:58;;;;;;;2.50;1.87;;;9.70;1.00;;;;;;5112255;27;20465;-74
2023/12/24 12:27:25;;;;;;;1.77;1.20;;;9.70;1.00;;;;;;5109857;27;20485;-75
2023/12/24 12:29:53;;;;;;;1.30;1.10;;;9.70;1.00;;;;;;5091863;28;20458;-71
2023/12/24 12:32:22;;;;;;;1.17;0.90;;;9.70;1.00;;;;;;5111403;27;20457;-71
2023/12/24 12:34:49;;;;;;;1.00;0.90;;;9.70;1.00;;;;;;5111956;27;21110;-71
2023/12/24 12:37:17;;;;;;;1.20;1.03;;;9.70;1.00;;;;;;5110818;27;20448;-74
2023/12/24 12:39:44;;;;;;;1.20;1.10;;;9.80;1.00;;;;;;5111469;27;20559;-75
2023/12/24 12:42:11;;;;;;;1.90;1.27;;;9.80;1.00;;;;;;5110074;27;20537;-77
2023/12/24 12:44:38;;;;;;;1.20;1.03;;;9.70;1.00;;;;;;5110872;27;21035;-74
2023/12/24 12:47:06;;;;;;;8.33;5.73;;;9.80;1.00;;;;;;5107513;27;20503;-74
2023/12/24 12:49:33;;;;;;;1.67;1.23;;;9.80;1.00;;;;;;5111170;27;20457;-76
2023/12/24 12:52:00;;;;;;;2.97;1.20;;;9.80;1.00;;;;;;5109872;27;20446;-74
2023/12/24 12:54:30;;;;;;;1.00;0.90;;;9.80;1.00;;;;;;5111854;27;20554;-75
2023/12/24 12:56:59;;;;;;;1.73;1.00;;;9.80;1.00;;;;;;5107502;27;20663;-73
2023/12/24 12:59:26;;;;;;;2.27;1.10;;;9.80;1.00;;;;;;5109535;27;20780;-74
2023/12/24 13:01:55;;;;;;;4.80;3.40;;;9.80;1.00;;;;;;5109911;27;20933;-75
2023/12/24 13:04:25;;;;;;;1.37;1.27;;;9.70;1.00;;;;;;5108955;27;20784;-73
2023/12/24 13:06:53;;;;;;;1.33;1.10;;;9.80;1.00;;;;;;5109240;27;20492;-72
2023/12/24 13:09:22;;;;;;;1.50;1.40;;;9.80;1.00;;;;;;5105987;27;20466;-71
2023/12/24 13:11:51;;;;;;;1.20;1.10;;;9.80;1.00;;;;;;5109939;27;20459;-74